Check out our new PWSWeather beta!
PWSweather.com
Personal Weather Stations
Station Observations
TAMWORTH
TamworthGB

TamworthGB

Lat: 52.64844, Lon: -1.68986

Elevation: 275

Station Type: Davis 6162C Vantage Pro2 Plus with daytime FARS permanently connected to a dedicated HP Mini 110-4116sa series netbook computer

http://tamworthweather.com

Latest ConditionsUpdated 10:50:02 AM GMT Wednesday, Feb 26, 2020
Currently Today's Max Today's Min Today's Average
Temperature 39.0°F3.9°C 39.0°F3.9°C 35.1°F1.7°C 35.8°F2.1°C
Dew Point 36.3°F2.4°C 36.3°F2.4°C 31.9°F-0.1°C 32.9°F0.5°C
Winds 8.0 mph W12.9 kmh W 9.0 mph -14.5 kmh - - 6.2 mph 10.0 kmh
Wind Gusts 19.0 mph30.6 kmh 19.0 mph30.6 kmh - -
Humidity 90% 92% 87% 89%
Pressure 29.63 in1003.4 mb 29.63 in1003.4 mb 29.39 in995.3 mb -
Precipitation - 0.01 in0.3 mm - -
Hour Temp Dew Point Humidity Winds Wind Gusts Pressure Precip Precip Rate Daily Precip Total
10:50 AM 39.0°F3.9°C 36.3°F2.4°C 90% 8.0 mph W12.9 kmh W 19.0 mph30.6 kmh 29.63 in1003.4 mb 0.00 in0.0 mm 0.00 in0.0 mm 0.01 in0.3 mm
10:40 AM 37.9°F3.3°C 35.5°F1.9°C 91% 6.0 mph W9.7 kmh W 14.0 mph22.5 kmh 29.62 in1003.0 mb 0.00 in0.0 mm 0.00 in0.0 mm 0.01 in0.3 mm
10:30 AM 37.6°F3.1°C 35.2°F1.8°C 91% 7.0 mph W11.3 kmh W 14.0 mph22.5 kmh 29.63 in1003.4 mb 0.00 in0.0 mm 0.00 in0.0 mm 0.01 in0.3 mm
10:20 AM 37.8°F3.2°C 35.1°F1.7°C 90% 8.0 mph WNW12.9 kmh WNW 16.0 mph25.7 kmh 29.62 in1003.0 mb 0.00 in0.0 mm 0.00 in0.0 mm 0.01 in0.3 mm
10:10 AM 37.8°F3.2°C 35.1°F1.7°C 90% 8.0 mph WNW12.9 kmh WNW 13.0 mph20.9 kmh 29.62 in1003.0 mb 0.00 in0.0 mm 0.00 in0.0 mm 0.01 in0.3 mm
10:00 AM 37.8°F3.2°C 35.1°F1.7°C 90% 9.0 mph W14.5 kmh W 17.0 mph27.4 kmh 29.62 in1003.0 mb 0.00 in0.0 mm 0.00 in0.0 mm 0.01 in0.3 mm
09:50 AM 37.9°F3.3°C 35.0°F1.7°C 89% 8.0 mph W12.9 kmh W 18.0 mph29.0 kmh 29.61 in1002.7 mb 0.00 in0.0 mm 0.00 in0.0 mm 0.01 in0.3 mm
09:40 AM 37.9°F3.3°C 35.0°F1.7°C 89% 9.0 mph W14.5 kmh W 17.0 mph27.4 kmh 29.60 in1002.4 mb 0.00 in0.0 mm 0.00 in0.0 mm 0.01 in0.3 mm
09:30 AM 37.9°F3.3°C 35.3°F1.8°C 90% 8.0 mph W12.9 kmh W 17.0 mph27.4 kmh 29.60 in1002.4 mb 0.00 in0.0 mm 0.00 in0.0 mm 0.01 in0.3 mm
09:20 AM 37.2°F2.9°C 34.8°F1.6°C 91% 7.0 mph W11.3 kmh W 15.0 mph24.1 kmh 29.59 in1002.0 mb 0.00 in0.0 mm 0.00 in0.0 mm 0.01 in0.3 mm
09:10 AM 36.7°F2.6°C 34.3°F1.3°C 91% 6.0 mph W9.7 kmh W 12.0 mph19.3 kmh 29.59 in1002.0 mb 0.01 in0.3 mm 0.00 in0.0 mm 0.01 in0.3 mm
09:00 AM 36.3°F2.4°C 33.9°F1.1°C 91% 6.0 mph WSW9.7 kmh WSW 12.0 mph19.3 kmh 29.58 in1001.7 mb 0.01 in0.3 mm 0.00 in0.0 mm 0.01 in0.3 mm
08:50 AM 36.1°F2.3°C 34.0°F1.1°C 92% 6.0 mph W9.7 kmh W 13.0 mph20.9 kmh 29.58 in1001.7 mb 0.01 in0.3 mm 0.00 in0.0 mm 0.01 in0.3 mm
08:40 AM 35.8°F2.1°C 33.4°F0.8°C 91% 6.0 mph W9.7 kmh W 11.0 mph17.7 kmh 29.58 in1001.7 mb 0.01 in0.3 mm 0.00 in0.0 mm 0.01 in0.3 mm
08:30 AM 35.6°F2.0°C 33.2°F0.7°C 91% 5.0 mph WNW8.0 kmh WNW 14.0 mph22.5 kmh 29.57 in1001.4 mb 0.01 in0.3 mm 0.00 in0.0 mm 0.01 in0.3 mm
08:20 AM 35.4°F1.9°C 33.1°F0.6°C 91% 6.0 mph W9.7 kmh W 12.0 mph19.3 kmh 29.57 in1001.4 mb 0.01 in0.3 mm 0.06 in1.5 mm 0.01 in0.3 mm
08:10 AM 35.8°F2.1°C 33.1°F0.6°C 90% 7.0 mph NW11.3 kmh NW 14.0 mph22.5 kmh 29.56 in1001.0 mb 0.00 in0.0 mm 0.00 in0.0 mm 0.00 in0.0 mm
08:00 AM 36.0°F2.2°C 33.3°F0.7°C 90% 6.0 mph WNW9.7 kmh WNW 14.0 mph22.5 kmh 29.56 in1001.0 mb 0.00 in0.0 mm 0.00 in0.0 mm 0.00 in0.0 mm
07:50 AM 35.8°F2.1°C 32.9°F0.5°C 89% 4.0 mph W6.4 kmh W 12.0 mph19.3 kmh 29.55 in1000.7 mb 0.00 in0.0 mm 0.00 in0.0 mm 0.00 in0.0 mm
07:40 AM 35.6°F2.0°C 32.7°F0.4°C 89% 3.0 mph W4.8 kmh W 9.0 mph14.5 kmh 29.54 in1000.3 mb 0.00 in0.0 mm 0.00 in0.0 mm 0.00 in0.0 mm
07:30 AM 35.6°F2.0°C 32.7°F0.4°C 89% 4.0 mph W6.4 kmh W 7.0 mph11.3 kmh 29.53 in1000.0 mb 0.00 in0.0 mm 0.00 in0.0 mm 0.00 in0.0 mm
07:20 AM 35.8°F2.1°C 32.6°F0.3°C 88% 6.0 mph WNW9.7 kmh WNW 10.0 mph16.1 kmh 29.53 in1000.0 mb 0.00 in0.0 mm 0.00 in0.0 mm 0.00 in0.0 mm
07:10 AM 35.8°F2.1°C 32.6°F0.3°C 88% 6.0 mph W9.7 kmh W 15.0 mph24.1 kmh 29.52 in999.7 mb 0.00 in0.0 mm 0.00 in0.0 mm 0.00 in0.0 mm
07:00 AM 35.4°F1.9°C 32.2°F0.1°C 88% 5.0 mph WSW8.0 kmh WSW 14.0 mph22.5 kmh 29.52 in999.7 mb 0.00 in0.0 mm 0.00 in0.0 mm 0.00 in0.0 mm
06:50 AM 35.2°F1.8°C 32.0°F0.0°C 88% 5.0 mph WSW8.0 kmh WSW 10.0 mph16.1 kmh 29.51 in999.3 mb 0.00 in0.0 mm 0.00 in0.0 mm 0.00 in0.0 mm
06:40 AM 35.2°F1.8°C 32.0°F0.0°C 88% 4.0 mph WSW6.4 kmh WSW 9.0 mph14.5 kmh 29.50 in999.0 mb 0.00 in0.0 mm 0.00 in0.0 mm 0.00 in0.0 mm
06:30 AM 35.2°F1.8°C 32.0°F0.0°C 88% 5.0 mph WSW8.0 kmh WSW 9.0 mph14.5 kmh 29.49 in998.6 mb 0.00 in0.0 mm 0.00 in0.0 mm 0.00 in0.0 mm
06:20 AM 35.2°F1.8°C 32.0°F0.0°C 88% 5.0 mph WSW8.0 kmh WSW 11.0 mph17.7 kmh 29.49 in998.6 mb 0.00 in0.0 mm 0.00 in0.0 mm 0.00 in0.0 mm
06:10 AM 35.1°F1.7°C 32.1°F0.1°C 89% 4.0 mph WSW6.4 kmh WSW 12.0 mph19.3 kmh 29.49 in998.6 mb 0.00 in0.0 mm 0.00 in0.0 mm 0.00 in0.0 mm
06:00 AM 35.1°F1.7°C 31.9°F-0.1°C 88% 5.0 mph WSW8.0 kmh WSW 9.0 mph14.5 kmh 29.49 in998.6 mb 0.00 in0.0 mm 0.00 in0.0 mm 0.00 in0.0 mm
05:50 AM 35.1°F1.7°C 32.1°F0.1°C 89% 5.0 mph WSW8.0 kmh WSW 9.0 mph14.5 kmh 29.48 in998.3 mb 0.00 in0.0 mm 0.00 in0.0 mm 0.00 in0.0 mm
05:40 AM 35.1°F1.7°C 32.1°F0.1°C 89% 5.0 mph WSW8.0 kmh WSW 10.0 mph16.1 kmh 29.48 in998.3 mb 0.00 in0.0 mm 0.00 in0.0 mm 0.00 in0.0 mm
05:30 AM 35.1°F1.7°C 32.1°F0.1°C 89% 5.0 mph W8.0 kmh W 14.0 mph22.5 kmh 29.47 in998.0 mb 0.00 in0.0 mm 0.00 in0.0 mm 0.00 in0.0 mm
05:20 AM 35.1°F1.7°C 32.1°F0.1°C 89% 5.0 mph W8.0 kmh W 10.0 mph16.1 kmh 29.47 in998.0 mb 0.00 in0.0 mm 0.00 in0.0 mm 0.00 in0.0 mm
05:10 AM 35.1°F1.7°C 32.1°F0.1°C 89% 6.0 mph W9.7 kmh W 11.0 mph17.7 kmh 29.46 in997.6 mb 0.00 in0.0 mm 0.00 in0.0 mm 0.00 in0.0 mm
05:00 AM 35.2°F1.8°C 32.3°F0.2°C 89% 6.0 mph W9.7 kmh W 12.0 mph19.3 kmh 29.46 in997.6 mb 0.00 in0.0 mm 0.00 in0.0 mm 0.00 in0.0 mm
04:50 AM 35.2°F1.8°C 32.3°F0.2°C 89% 7.0 mph WSW11.3 kmh WSW 11.0 mph17.7 kmh 29.46 in997.6 mb 0.00 in0.0 mm 0.00 in0.0 mm 0.00 in0.0 mm
04:40 AM 35.2°F1.8°C 32.3°F0.2°C 89% 7.0 mph W11.3 kmh W 14.0 mph22.5 kmh 29.45 in997.3 mb 0.00 in0.0 mm 0.00 in0.0 mm 0.00 in0.0 mm
04:30 AM 35.2°F1.8°C 32.0°F0.0°C 88% 7.0 mph W11.3 kmh W 14.0 mph22.5 kmh 29.45 in997.3 mb 0.00 in0.0 mm 0.00 in0.0 mm 0.00 in0.0 mm
04:20 AM 35.4°F1.9°C 32.2°F0.1°C 88% 8.0 mph W12.9 kmh W 13.0 mph20.9 kmh 29.44 in997.0 mb 0.00 in0.0 mm 0.00 in0.0 mm 0.00 in0.0 mm
04:10 AM 35.4°F1.9°C 31.9°F-0.1°C 87% 8.0 mph WSW12.9 kmh WSW 18.0 mph29.0 kmh 29.44 in997.0 mb 0.00 in0.0 mm 0.00 in0.0 mm 0.00 in0.0 mm
04:00 AM 35.4°F1.9°C 32.2°F0.1°C 88% 7.0 mph WSW11.3 kmh WSW 15.0 mph24.1 kmh 29.44 in997.0 mb 0.00 in0.0 mm 0.00 in0.0 mm 0.00 in0.0 mm
03:50 AM 35.2°F1.8°C 32.0°F0.0°C 88% 7.0 mph WSW11.3 kmh WSW 15.0 mph24.1 kmh 29.44 in997.0 mb 0.00 in0.0 mm 0.00 in0.0 mm 0.00 in0.0 mm
03:40 AM 35.1°F1.7°C 31.9°F-0.1°C 88% 6.0 mph W9.7 kmh W 13.0 mph20.9 kmh 29.44 in997.0 mb 0.00 in0.0 mm 0.00 in0.0 mm 0.00 in0.0 mm
03:30 AM 35.2°F1.8°C 32.0°F0.0°C 88% 6.0 mph WSW9.7 kmh WSW 11.0 mph17.7 kmh 29.44 in997.0 mb 0.00 in0.0 mm 0.00 in0.0 mm 0.00 in0.0 mm
03:20 AM 35.1°F1.7°C 32.1°F0.1°C 89% 6.0 mph WSW9.7 kmh WSW 13.0 mph20.9 kmh 29.43 in996.6 mb 0.00 in0.0 mm 0.00 in0.0 mm 0.00 in0.0 mm
03:10 AM 35.1°F1.7°C 32.1°F0.1°C 89% 6.0 mph WSW9.7 kmh WSW 11.0 mph17.7 kmh 29.43 in996.6 mb 0.00 in0.0 mm 0.00 in0.0 mm 0.00 in0.0 mm
03:00 AM 35.2°F1.8°C 32.3°F0.2°C 89% 6.0 mph WSW9.7 kmh WSW 13.0 mph20.9 kmh 29.43 in996.6 mb 0.00 in0.0 mm 0.00 in0.0 mm 0.00 in0.0 mm
02:50 AM 35.2°F1.8°C 32.3°F0.2°C 89% 6.0 mph WSW9.7 kmh WSW 10.0 mph16.1 kmh 29.43 in996.6 mb 0.00 in0.0 mm 0.00 in0.0 mm 0.00 in0.0 mm
02:40 AM 35.2°F1.8°C 32.3°F0.2°C 89% 5.0 mph WSW8.0 kmh WSW 12.0 mph19.3 kmh 29.43 in996.6 mb 0.00 in0.0 mm 0.00 in0.0 mm 0.00 in0.0 mm
02:30 AM 35.2°F1.8°C 32.3°F0.2°C 89% 6.0 mph WSW9.7 kmh WSW 11.0 mph17.7 kmh 29.43 in996.6 mb 0.00 in0.0 mm 0.00 in0.0 mm 0.00 in0.0 mm
02:20 AM 35.2°F1.8°C 32.3°F0.2°C 89% 6.0 mph W9.7 kmh W 12.0 mph19.3 kmh 29.43 in996.6 mb 0.00 in0.0 mm 0.00 in0.0 mm 0.00 in0.0 mm
02:10 AM 35.4°F1.9°C 32.5°F0.3°C 89% 6.0 mph W9.7 kmh W 14.0 mph22.5 kmh 29.43 in996.6 mb 0.00 in0.0 mm 0.00 in0.0 mm 0.00 in0.0 mm
02:00 AM 35.6°F2.0°C 32.4°F0.2°C 88% 7.0 mph WSW11.3 kmh WSW 12.0 mph19.3 kmh 29.43 in996.6 mb 0.00 in0.0 mm 0.00 in0.0 mm 0.00 in0.0 mm
01:50 AM 35.8°F2.1°C 32.6°F0.3°C 88% 7.0 mph WSW11.3 kmh WSW 17.0 mph27.4 kmh 29.42 in996.3 mb 0.00 in0.0 mm 0.00 in0.0 mm 0.00 in0.0 mm
01:40 AM 35.8°F2.1°C 32.9°F0.5°C 89% 7.0 mph WSW11.3 kmh WSW 13.0 mph20.9 kmh 29.43 in996.6 mb 0.00 in0.0 mm 0.00 in0.0 mm 0.00 in0.0 mm
01:30 AM 35.6°F2.0°C 33.0°F0.6°C 90% 6.0 mph WSW9.7 kmh WSW 15.0 mph24.1 kmh 29.42 in996.3 mb 0.00 in0.0 mm 0.00 in0.0 mm 0.00 in0.0 mm
01:20 AM 35.4°F1.9°C 32.8°F0.4°C 90% 6.0 mph WSW9.7 kmh WSW 11.0 mph17.7 kmh 29.42 in996.3 mb 0.00 in0.0 mm 0.00 in0.0 mm 0.00 in0.0 mm
01:10 AM 35.4°F1.9°C 32.8°F0.4°C 90% 6.0 mph WSW9.7 kmh WSW 12.0 mph19.3 kmh 29.41 in995.9 mb 0.00 in0.0 mm 0.00 in0.0 mm 0.00 in0.0 mm
01:00 AM 35.6°F2.0°C 32.7°F0.4°C 89% 6.0 mph WSW9.7 kmh WSW 11.0 mph17.7 kmh 29.41 in995.9 mb 0.00 in0.0 mm 0.00 in0.0 mm 0.00 in0.0 mm
12:50 AM 35.8°F2.1°C 32.9°F0.5°C 89% 7.0 mph WSW11.3 kmh WSW 11.0 mph17.7 kmh 29.41 in995.9 mb 0.00 in0.0 mm 0.00 in0.0 mm 0.00 in0.0 mm
12:40 AM 35.6°F2.0°C 32.7°F0.4°C 89% 7.0 mph WSW11.3 kmh WSW 12.0 mph19.3 kmh 29.41 in995.9 mb 0.00 in0.0 mm 0.00 in0.0 mm 0.00 in0.0 mm
12:30 AM 35.4°F1.9°C 32.5°F0.3°C 89% 7.0 mph W11.3 kmh W 15.0 mph24.1 kmh 29.40 in995.6 mb 0.00 in0.0 mm 0.00 in0.0 mm 0.00 in0.0 mm
12:20 AM 35.2°F1.8°C 32.6°F0.3°C 90% 7.0 mph W11.3 kmh W 13.0 mph20.9 kmh 29.40 in995.6 mb 0.00 in0.0 mm 0.00 in0.0 mm 0.00 in0.0 mm
12:10 AM 35.4°F1.9°C 32.5°F0.3°C 89% 7.0 mph WSW11.3 kmh WSW 14.0 mph22.5 kmh 29.39 in995.3 mb 0.00 in0.0 mm 0.00 in0.0 mm 0.00 in0.0 mm
12:00 AM 35.2°F1.8°C 32.6°F0.3°C 90% 6.0 mph WSW9.7 kmh WSW 14.0 mph22.5 kmh 29.39 in995.3 mb 0.00 in0.0 mm 0.00 in0.0 mm 0.00 in0.0 mm